Airfield :
LOGIN :

Register | Disclaimer

   EN    FR    IT 

 










Legend :    VFR   Marginal VFR   IFR   Intensive IFR   Very Intensive IFR
Visi :
Ceiling :
>= 8 km
>= 3000ft
5 to 8 km
1000 to 3000 ft
1500m to 5 km
500 to 1000 ft
800 to 1500m
200 to 500 ft
< 800m
< 200 ft
Symbols :   Thunderstorms  Fog  Heavy snow  Heavy precipitations  Wind > 20 kt
SIGMETs :     Misc.  Thunderstorms  Icing  Turbulence  Mountain Waves  Volcanic Ashes






- Airport Elevation : 1017 ft


LFSL - Brive Souillac

CURRENT METAR :
  • 290800Z AUTO 35001KT 0700 R29/0900U FG VV/// 06/06 Q1019 TEMPO 0800 FG

EXPIRED METARs :
  • 290730Z AUTO 00000KT 0750 0700 R29/0900N FG VV/// 06/06 Q1019 TEMPO 0800 FG
  • 290700Z AUTO 11003KT 1000 0900 R29/1100U BCFG VV/// 06/06 Q1019 NOSIG
  • 290630Z AUTO VRB01KT 1700 1100 R29/1900D BR VV/// 06/06 Q1019 TEMPO 0800 FG
  • 290600Z AUTO 00000KT 1000 R29/1200N BR VV/// 06/05 Q1019 NOSIG
  • 290530Z AUTO VRB02KT 1200 R29/1500D BR VV/// 06/05 Q1018 NOSIG

TAF TAF LFSL
Valid from the 29 at 06:00 until the 29 at 15:00 UTC


290500Z 2906/2915 VRB02KT 1500 BR NSC
TEMPO 2906/2910 0800 FG VV///
BECMG 2910/2912 02005KT 9999 BKN010



MET'MAP, your aeronautical weather chart ! - Copyright ORBIFLY December 2007 - Disclaimer

ORBIFLY MET'MAP TEAM :

Programming & Development : Alexandra Zaïnal
Original concept : Baudouin d'Aumeries
Technical & hardware support : Manuel Goepfert
Assistance : Marc-Olivier Méhu




SOURCES & CREDITS :

   NOAA